Time;durP1;ratioP1;P1;durP2;ratioP2;P2;SDS_P1;SDS_P2;PMS_P1;PMS_P2;Temp;Humidity;BMP_temperature;BMP_pressure;BME280_temperature;BME280_humidity;BME280_pressure;Samples;Min_cycle;Max_cycle;Signal;HPM_P1;HPM_P2
2023/07/02 00:01:49;;;;;;;18.38;6.15;;;13.20;96.30;;;;;;5051280;28;20033;-72
2023/07/02 00:04:19;;;;;;;17.77;5.80;;;13.20;98.50;;;;;;5050514;28;20333;-72
2023/07/02 00:06:48;;;;;;;13.73;5.82;;;13.10;99.90;;;;;;5052347;28;20036;-72
2023/07/02 00:09:15;;;;;;;21.48;5.43;;;13.10;99.90;;;;;;5051667;28;20055;-72
2023/07/02 00:11:43;;;;;;;16.42;5.90;;;12.90;99.90;;;;;;5052774;28;20471;-71
2023/07/02 00:14:10;;;;;;;15.63;5.50;;;12.90;99.90;;;;;;5051642;28;20139;-72
2023/07/02 00:16:38;;;;;;;15.65;6.00;;;12.70;99.90;;;;;;5052065;28;20439;-72
2023/07/02 00:19:04;;;;;;;19.05;6.00;;;12.80;99.90;;;;;;5052033;28;20021;-73
2023/07/02 00:21:33;;;;;;;21.85;6.10;;;12.70;99.90;;;;;;5052237;28;20075;-72
2023/07/02 00:23:59;;;;;;;14.18;6.03;;;12.70;99.90;;;;;;5052047;28;20420;-72
2023/07/02 00:26:26;;;;;;;18.25;4.97;;;12.70;99.90;;;;;;5051840;28;20028;-71
2023/07/02 00:28:56;;;;;;;16.10;5.57;;;12.70;99.90;;;;;;5052220;28;20127;-72
2023/07/02 00:31:22;;;;;;;24.63;6.15;;;12.70;99.90;;;;;;5051712;28;20091;-71
2023/07/02 00:33:49;;;;;;;14.68;5.50;;;12.70;99.90;;;;;;5051811;28;20075;-72
2023/07/02 00:36:15;;;;;;;17.20;5.97;;;12.70;99.90;;;;;;5051735;28;20029;-72
2023/07/02 00:38:42;;;;;;;12.73;5.55;;;12.60;99.90;;;;;;5050823;28;20332;-72
2023/07/02 00:41:09;;;;;;;22.88;5.93;;;12.60;99.90;;;;;;5051535;28;20465;-72
2023/07/02 00:43:34;;;;;;;10.80;4.60;;;12.60;99.90;;;;;;5051132;28;20397;-72
2023/07/02 00:46:02;;;;;;;18.45;4.65;;;12.60;99.90;;;;;;5051446;28;20033;-71
2023/07/02 00:48:29;;;;;;;20.33;6.05;;;12.70;99.90;;;;;;5049923;28;20459;-72
2023/07/02 00:50:56;;;;;;;14.80;5.53;;;12.70;99.90;;;;;;5051845;28;20021;-71
2023/07/02 00:53:21;;;;;;;15.65;5.55;;;12.60;99.90;;;;;;5051210;28;20116;-72
2023/07/02 00:55:47;;;;;;;16.25;5.45;;;12.70;99.90;;;;;;5051643;28;20135;-71
2023/07/02 00:58:15;;;;;;;18.33;5.80;;;12.70;99.90;;;;;;5051079;28;20104;-72
2023/07/02 01:00:42;;;;;;;16.80;4.97;;;12.70;99.90;;;;;;5051263;28;20492;-71
2023/07/02 01:03:08;;;;;;;19.10;5.57;;;12.70;99.90;;;;;;5051394;28;20149;-73
2023/07/02 01:05:36;;;;;;;17.30;5.97;;;12.70;99.90;;;;;;5049816;28;20339;-71
2023/07/02 01:08:05;;;;;;;25.15;6.10;;;12.70;99.90;;;;;;5051381;28;20108;-71
2023/07/02 01:10:32;;;;;;;18.67;6.60;;;12.70;99.90;;;;;;5051203;28;20036;-72
2023/07/02 01:13:14;;;;;;;16.75;5.53;;;12.70;99.90;;;;;;5051883;28;20033;-71
2023/07/02 01:15:40;;;;;;;19.00;5.63;;;12.60;99.90;;;;;;5051405;28;20025;-72
2023/07/02 01:18:07;;;;;;;18.60;5.75;;;12.60;99.90;;;;;;5051066;28;20021;-71
2023/07/02 01:20:35;;;;;;;14.18;5.50;;;12.60;99.90;;;;;;5051291;28;20024;-72
2023/07/02 01:23:02;;;;;;;15.27;5.18;;;12.60;99.90;;;;;;5051061;28;20398;-71
2023/07/02 01:25:28;;;;;;;16.98;5.72;;;12.70;99.90;;;;;;5050199;28;20039;-71
2023/07/02 01:27:55;;;;;;;15.10;5.22;;;12.70;99.90;;;;;;5050845;28;20127;-72
2023/07/02 01:30:21;;;;;;;21.38;6.57;;;12.70;99.90;;;;;;5050610;28;20040;-72
2023/07/02 01:32:46;;;;;;;16.20;5.53;;;12.60;99.90;;;;;;5051077;28;20032;-71
2023/07/02 01:35:12;;;;;;;19.73;5.80;;;12.60;99.90;;;;;;5049921;28;20025;-72
2023/07/02 01:37:38;;;;;;;14.63;5.88;;;12.60;99.90;;;;;;5051122;28;20116;-72
2023/07/02 01:40:10;;;;;;;16.98;5.57;;;12.60;99.90;;;;;;5050958;28;20489;-71
2023/07/02 01:42:36;;;;;;;16.67;5.50;;;12.60;99.90;;;;;;5050857;28;20037;-72
2023/07/02 01:45:02;;;;;;;16.67;4.90;;;12.60;99.90;;;;;;5050712;28;20120;-71
2023/07/02 01:47:28;;;;;;;15.32;5.10;;;12.50;99.90;;;;;;5050196;28;20416;-72
2023/07/02 01:49:54;;;;;;;15.75;4.75;;;12.50;99.90;;;;;;5050534;28;20029;-72
2023/07/02 01:52:20;;;;;;;16.95;4.65;;;12.60;99.90;;;;;;5050378;28;20089;-71
2023/07/02 01:54:46;;;;;;;17.92;4.63;;;12.60;99.90;;;;;;5050598;28;20234;-71
2023/07/02 01:57:12;;;;;;;17.58;4.95;;;12.60;99.90;;;;;;5050235;28;20036;-73
2023/07/02 01:59:38;;;;;;;15.32;4.78;;;12.60;99.90;;;;;;5050937;28;20033;-71
2023/07/02 02:02:04;;;;;;;11.55;5.07;;;12.60;99.90;;;;;;5050644;28;20056;-69
2023/07/02 02:04:30;;;;;;;18.65;4.60;;;12.60;99.90;;;;;;5049894;28;20489;-71
2023/07/02 02:06:56;;;;;;;11.88;4.15;;;12.60;99.90;;;;;;5050754;28;20443;-70
2023/07/02 02:09:22;;;;;;;15.85;4.63;;;12.60;99.90;;;;;;5050213;28;20075;-70
2023/07/02 02:11:52;;;;;;;16.73;4.90;;;12.60;99.90;;;;;;5050616;28;20413;-70
2023/07/02 02:14:18;;;;;;;13.70;4.57;;;12.70;99.90;;;;;;5050233;28;20462;-71
2023/07/02 02:16:47;;;;;;;18.15;4.20;;;12.70;99.90;;;;;;5050611;28;20087;-71
2023/07/02 02:19:16;;;;;;;20.70;5.40;;;12.80;99.90;;;;;;5050334;28;20056;-72
2023/07/02 02:21:42;;;;;;;16.90;4.68;;;12.80;99.90;;;;;;5050620;28;20025;-71
2023/07/02 02:24:08;;;;;;;17.17;4.70;;;12.80;99.90;;;;;;5050076;28;20468;-70
2023/07/02 02:26:35;;;;;;;19.45;4.72;;;12.90;99.90;;;;;;5049585;28;20052;-70
2023/07/02 02:29:01;;;;;;;19.08;5.03;;;12.90;99.90;;;;;;5048755;28;20497;-70
2023/07/02 02:31:27;;;;;;;13.93;4.35;;;12.90;99.90;;;;;;5049854;28;20037;-71
2023/07/02 02:33:53;;;;;;;13.02;3.88;;;13.00;99.90;;;;;;5050403;28;20048;-70
2023/07/02 02:36:18;;;;;;;20.08;4.25;;;13.00;99.90;;;;;;5049486;28;20497;-71
2023/07/02 02:38:44;;;;;;;16.70;4.72;;;13.00;99.90;;;;;;5048705;28;20021;-71
2023/07/02 02:41:10;;;;;;;19.42;4.72;;;13.00;99.90;;;;;;5050505;28;20036;-71
2023/07/02 02:43:36;;;;;;;18.83;4.03;;;13.10;99.90;;;;;;5049579;28;20394;-71
2023/07/02 02:46:01;;;;;;;16.42;4.70;;;13.10;99.90;;;;;;5050087;28;20044;-71
2023/07/02 02:48:27;;;;;;;14.98;3.95;;;13.20;99.90;;;;;;5049621;28;20025;-71
2023/07/02 02:50:53;;;;;;;17.27;4.07;;;13.10;99.90;;;;;;5049819;28;20033;-71
2023/07/02 02:53:18;;;;;;;21.55;5.30;;;13.20;99.90;;;;;;5049546;28;20025;-71
2023/07/02 02:55:44;;;;;;;15.75;4.50;;;13.20;99.90;;;;;;5048650;28;20135;-71
2023/07/02 02:58:10;;;;;;;16.13;4.90;;;13.10;99.90;;;;;;5049680;28;20033;-70
2023/07/02 03:00:36;;;;;;;17.75;4.15;;;13.20;99.90;;;;;;5050071;28;20033;-71
2023/07/02 03:03:02;;;;;;;15.60;3.85;;;13.20;99.90;;;;;;5049805;28;20390;-70
2023/07/02 03:05:29;;;;;;;16.25;4.00;;;13.20;99.90;;;;;;5049120;28;20040;-71
2023/07/02 03:07:54;;;;;;;18.63;4.07;;;13.20;99.90;;;;;;5051814;28;20055;-70
2023/07/02 03:10:20;;;;;;;18.33;4.38;;;13.10;99.90;;;;;;5053141;28;20433;-71
2023/07/02 03:12:47;;;;;;;14.95;4.00;;;13.10;99.90;;;;;;5053697;28;20040;-71
2023/07/02 03:15:13;;;;;;;19.33;4.65;;;13.10;99.90;;;;;;5053906;28;20021;-71
2023/07/02 03:17:39;;;;;;;17.90;3.92;;;13.00;99.90;;;;;;5052919;28;20039;-70
2023/07/02 03:20:07;;;;;;;19.77;4.57;;;13.00;99.90;;;;;;5054056;28;20497;-71
2023/07/02 03:22:33;;;;;;;16.13;4.05;;;12.90;99.90;;;;;;5052723;28;20029;-71
2023/07/02 03:25:00;;;;;;;13.05;4.00;;;12.80;99.90;;;;;;5053405;28;20174;-70
2023/07/02 03:27:25;;;;;;;17.98;3.65;;;12.70;99.90;;;;;;5052991;28;20036;-71
2023/07/02 03:29:52;;;;;;;15.98;3.95;;;12.60;99.90;;;;;;5053183;28;20052;-70
2023/07/02 03:32:18;;;;;;;18.30;4.03;;;12.60;99.90;;;;;;5052762;28;20159;-72
2023/07/02 03:34:45;;;;;;;17.67;3.90;;;12.50;99.90;;;;;;5052877;28;20052;-70
2023/07/02 03:37:10;;;;;;;18.35;4.15;;;12.50;99.90;;;;;;5052274;28;20036;-71
2023/07/02 03:39:36;;;;;;;21.67;4.60;;;12.40;99.90;;;;;;5052262;28;20029;-70
2023/07/02 03:42:02;;;;;;;17.23;3.67;;;12.40;99.90;;;;;;5052296;28;20037;-70
2023/07/02 03:44:28;;;;;;;18.48;4.32;;;12.40;99.90;;;;;;5052190;28;20029;-70
2023/07/02 03:46:54;;;;;;;20.45;3.92;;;12.40;99.90;;;;;;5052238;28;20100;-70
2023/07/02 03:49:19;;;;;;;19.00;4.65;;;12.40;99.90;;;;;;5050960;28;20051;-72
2023/07/02 03:51:45;;;;;;;20.55;4.63;;;12.50;99.90;;;;;;5050928;28;20029;-71
2023/07/02 03:54:11;;;;;;;18.20;3.95;;;12.50;99.90;;;;;;5051387;28;20028;-70
2023/07/02 03:56:36;;;;;;;13.40;3.65;;;12.60;99.90;;;;;;5052447;28;20028;-72
2023/07/02 03:59:02;;;;;;;18.02;4.43;;;12.60;99.90;;;;;;5052276;28;20025;-70
2023/07/02 04:01:28;;;;;;;14.77;3.53;;;12.70;99.90;;;;;;5052025;28;20171;-71
2023/07/02 04:03:55;;;;;;;21.95;4.85;;;12.70;99.90;;;;;;5052338;28;20434;-71
2023/07/02 04:06:20;;;;;;;13.18;3.35;;;12.70;99.90;;;;;;5051962;28;20115;-72
2023/07/02 04:08:46;;;;;;;15.57;3.53;;;12.70;99.90;;;;;;5052234;28;20181;-70
2023/07/02 04:11:12;;;;;;;19.48;4.70;;;12.80;99.90;;;;;;5052338;28;20385;-71
2023/07/02 04:13:39;;;;;;;10.68;3.75;;;12.90;99.90;;;;;;5051613;28;20037;-71
2023/07/02 04:16:05;;;;;;;14.95;3.80;;;12.90;99.90;;;;;;5052649;28;20095;-71
2023/07/02 04:18:31;;;;;;;19.98;4.10;;;13.00;99.90;;;;;;5051316;28;20037;-71
2023/07/02 04:20:58;;;;;;;14.30;3.88;;;13.00;99.90;;;;;;5052661;28;20096;-71
2023/07/02 04:23:24;;;;;;;16.75;3.95;;;13.00;99.90;;;;;;5051594;28;20053;-72
2023/07/02 04:25:49;;;;;;;18.52;4.45;;;13.00;99.90;;;;;;5052458;28;20040;-71
2023/07/02 04:28:15;;;;;;;17.40;3.70;;;13.00;99.90;;;;;;5052045;28;20053;-71
2023/07/02 04:30:42;;;;;;;15.60;3.80;;;13.00;99.90;;;;;;5051600;28;20024;-71
2023/07/02 04:33:07;;;;;;;11.98;3.20;;;13.10;99.90;;;;;;5052177;28;20339;-71
2023/07/02 04:35:34;;;;;;;19.40;3.67;;;13.10;99.90;;;;;;5051486;28;20036;-71
2023/07/02 04:38:00;;;;;;;14.07;3.47;;;13.10;99.90;;;;;;5050446;28;20044;-71
2023/07/02 04:40:26;;;;;;;10.75;3.35;;;13.20;99.90;;;;;;5051348;28;20383;-72
2023/07/02 04:42:57;;;;;;;11.60;3.35;;;13.20;99.90;;;;;;5051710;28;20056;-71
2023/07/02 04:45:27;;;;;;;14.43;3.60;;;13.30;99.90;;;;;;5051562;28;20025;-73
2023/07/02 04:47:52;;;;;;;19.80;5.13;;;13.20;99.90;;;;;;5051689;28;20056;-72
2023/07/02 04:50:18;;;;;;;16.27;4.53;;;13.30;99.90;;;;;;5051836;28;20053;-71
2023/07/02 04:52:44;;;;;;;17.75;4.20;;;13.20;99.90;;;;;;5050076;28;20025;-71
2023/07/02 04:55:11;;;;;;;15.85;3.22;;;13.20;99.90;;;;;;5051565;28;20040;-71
2023/07/02 04:57:36;;;;;;;18.52;4.22;;;13.30;99.90;;;;;;5051329;28;20427;-71
2023/07/02 05:00:03;;;;;;;21.52;3.95;;;13.20;99.90;;;;;;5051771;28;20132;-71
2023/07/02 05:02:29;;;;;;;14.10;3.50;;;13.30;99.90;;;;;;5051302;28;20033;-71
2023/07/02 05:04:55;;;;;;;15.57;3.55;;;13.30;99.90;;;;;;5051981;28;20017;-71
2023/07/02 05:07:21;;;;;;;13.60;3.80;;;13.30;99.90;;;;;;5050317;28;20033;-71
2023/07/02 05:09:48;;;;;;;15.98;3.55;;;13.30;99.90;;;;;;5051151;28;20029;-71
2023/07/02 05:12:14;;;;;;;10.77;3.60;;;13.40;99.90;;;;;;5051956;28;20041;-71
2023/07/02 05:14:39;;;;;;;17.17;3.80;;;13.40;97.40;;;;;;5050781;28;20029;-71
2023/07/02 05:17:05;;;;;;;11.63;3.60;;;13.40;99.90;;;;;;5051422;28;20479;-70
2023/07/02 05:19:31;;;;;;;16.02;3.58;;;13.40;99.90;;;;;;5050818;28;20017;-71
2023/07/02 05:21:57;;;;;;;16.00;3.60;;;13.40;97.10;;;;;;5051328;28;20073;-71
2023/07/02 05:24:22;;;;;;;17.00;3.83;;;13.40;96.70;;;;;;5050994;28;20025;-71
2023/07/02 05:26:50;;;;;;;16.63;4.30;;;13.40;97.50;;;;;;5050962;28;20048;-71
2023/07/02 05:29:16;;;;;;;12.88;3.67;;;13.40;96.50;;;;;;5050983;28;20059;-70
2023/07/02 05:31:42;;;;;;;16.30;3.97;;;13.40;96.90;;;;;;5050109;28;20110;-70
2023/07/02 05:34:08;;;;;;;13.48;3.60;;;13.50;92.20;;;;;;5050855;28;20025;-70
2023/07/02 05:36:34;;;;;;;15.90;3.53;;;13.50;98.40;;;;;;5050449;28;20029;-70
2023/07/02 05:39:00;;;;;;;18.10;3.65;;;13.50;95.00;;;;;;5050598;28;20036;-71
2023/07/02 05:41:30;;;;;;;19.95;3.35;;;13.50;99.90;;;;;;5050505;28;20036;-72
2023/07/02 05:44:02;;;;;;;15.98;3.88;;;13.50;96.20;;;;;;5050732;28;20142;-71
2023/07/02 05:46:27;;;;;;;18.25;3.88;;;13.60;96.40;;;;;;5050083;28;20104;-71
2023/07/02 05:48:57;;;;;;;15.68;4.18;;;13.60;93.20;;;;;;5050171;28;20029;-71
2023/07/02 05:51:23;;;;;;;15.68;4.07;;;13.70;95.70;;;;;;5050649;28;20036;-71
2023/07/02 05:53:50;;;;;;;14.35;3.55;;;13.70;92.10;;;;;;5049604;28;20051;-71
2023/07/02 05:56:16;;;;;;;20.15;4.13;;;13.70;93.10;;;;;;5050241;28;20108;-70
2023/07/02 05:58:42;;;;;;;14.20;3.60;;;13.70;92.50;;;;;;5050146;28;20033;-71
2023/07/02 06:01:07;;;;;;;17.17;3.95;;;13.70;96.50;;;;;;5049105;28;20036;-70
2023/07/02 06:03:33;;;;;;;16.95;3.85;;;13.70;92.00;;;;;;5050110;28;20415;-70
2023/07/02 06:05:59;;;;;;;17.08;3.30;;;13.80;83.60;;;;;;5050712;28;20052;-71
2023/07/02 06:08:25;;;;;;;14.10;3.70;;;13.90;86.80;;;;;;5050530;28;20395;-70
2023/07/02 06:10:51;;;;;;;19.30;3.90;;;13.90;90.50;;;;;;5049643;28;20397;-71
2023/07/02 06:13:17;;;;;;;14.00;3.47;;;14.00;91.60;;;;;;5050206;28;20390;-70
2023/07/02 06:15:43;;;;;;;10.05;3.03;;;14.10;85.10;;;;;;5049745;28;20113;-71
2023/07/02 06:18:09;;;;;;;14.38;3.38;;;14.20;81.80;;;;;;5049912;28;20111;-71
2023/07/02 06:20:34;;;;;;;18.00;3.70;;;14.30;79.20;;;;;;5049736;28;20043;-71
2023/07/02 06:23:00;;;;;;;16.65;3.33;;;14.30;47.00;;;;;;5048779;28;20433;-70
2023/07/02 06:25:26;;;;;;;14.70;3.20;;;14.30;43.50;;;;;;5050284;28;20108;-71
2023/07/02 06:27:54;;;;;;;19.30;3.70;;;14.30;47.90;;;;;;5049674;28;20090;-71
2023/07/02 06:30:21;;;;;;;15.95;3.70;;;14.30;35.60;;;;;;5050188;28;20112;-70
2023/07/02 06:32:47;;;;;;;12.13;3.15;;;14.30;44.00;;;;;;5049596;28;20037;-70
2023/07/02 06:35:12;;;;;;;12.00;3.00;;;14.40;44.10;;;;;;5049358;28;20021;-70
2023/07/02 06:37:38;;;;;;;10.80;3.20;;;14.40;52.10;;;;;;5049787;28;20021;-71
2023/07/02 06:40:05;;;;;;;16.00;3.03;;;14.50;32.40;;;;;;5050254;28;20086;-70
2023/07/02 06:42:31;;;;;;;12.07;3.78;;;14.50;26.50;;;;;;5052430;28;20044;-72
2023/07/02 06:44:56;;;;;;;17.70;3.65;;;14.50;26.50;;;;;;5054157;28;20025;-71
2023/07/02 06:47:22;;;;;;;13.38;3.97;;;14.50;20.20;;;;;;5054192;28;20100;-70
2023/07/02 06:49:48;;;;;;;17.15;3.30;;;14.40;10.20;;;;;;5053406;28;20021;-71
2023/07/02 06:52:13;;;;;;;12.85;3.17;;;14.50;28.30;;;;;;5054041;28;20511;-70
2023/07/02 06:54:40;;;;;;;15.98;2.92;;;14.50;55.20;;;;;;5053112;28;20021;-70
2023/07/02 06:57:05;;;;;;;13.43;3.13;;;14.50;28.90;;;;;;5053374;28;20520;-70
2023/07/02 06:59:31;;;;;;;15.45;3.30;;;14.50;37.90;;;;;;5051668;28;20033;-72
2023/07/02 07:01:57;;;;;;;15.15;3.30;;;14.50;40.70;;;;;;5053784;28;20029;-70
2023/07/02 07:04:23;;;;;;;16.20;3.50;;;14.60;49.70;;;;;;5053798;28;20098;-71
2023/07/02 07:06:48;;;;;;;14.82;3.03;;;14.60;27.30;;;;;;5053403;28;20356;-70
2023/07/02 07:09:14;;;;;;;12.55;3.10;;;14.60;1.00;;;;;;5053838;28;20017;-70
2023/07/02 07:11:40;;;;;;;13.57;3.08;;;14.50;5.20;;;;;;5053128;28;20063;-71
2023/07/02 07:14:06;;;;;;;15.25;3.38;;;14.60;29.50;;;;;;5053997;28;20099;-71
2023/07/02 07:16:31;;;;;;;11.10;3.00;;;14.60;22.60;;;;;;5053231;28;20103;-72
2023/07/02 07:18:57;;;;;;;17.08;3.35;;;14.70;41.70;;;;;;5053439;28;20021;-71
2023/07/02 07:21:23;;;;;;;15.27;3.03;;;14.70;15.20;;;;;;5053577;28;20112;-70
2023/07/02 07:23:48;;;;;;;13.32;3.53;;;14.70;16.60;;;;;;5052818;28;20493;-70
2023/07/02 07:26:14;;;;;;;14.55;3.50;;;14.80;32.60;;;;;;5052887;28;20025;-70
2023/07/02 07:28:40;;;;;;;15.65;3.05;;;14.90;21.30;;;;;;5052467;28;20103;-70
2023/07/02 07:31:06;;;;;;;17.27;3.08;;;14.90;10.50;;;;;;5051901;28;20036;-71
2023/07/02 07:33:31;;;;;;;13.50;3.40;;;14.90;1.00;;;;;;5053346;28;20393;-72
2023/07/02 07:35:57;;;;;;;9.80;2.67;;;14.90;1.00;;;;;;5052313;28;20029;-70
2023/07/02 07:38:23;;;;;;;14.98;3.42;;;15.00;1.00;;;;;;5052890;28;20017;-71
2023/07/02 07:40:49;;;;;;;10.80;2.92;;;15.00;1.00;;;;;;5052764;28;20481;-71
2023/07/02 07:43:15;;;;;;;13.20;2.97;;;15.00;1.00;;;;;;5052384;28;20033;-71
2023/07/02 07:45:40;;;;;;;14.75;3.35;;;15.00;1.00;;;;;;5051997;28;20029;-71
2023/07/02 07:48:06;;;;;;;12.93;2.90;;;15.10;1.00;;;;;;5053270;28;20140;-71
2023/07/02 07:50:32;;;;;;;12.30;3.10;;;15.20;1.00;;;;;;5052380;28;20064;-72
2023/07/02 07:52:58;;;;;;;12.60;2.90;;;15.20;1.00;;;;;;5051458;28;20037;-70
2023/07/02 07:55:24;;;;;;;14.10;3.50;;;15.40;1.00;;;;;;5052555;28;20087;-70
2023/07/02 07:57:50;;;;;;;10.15;3.20;;;15.40;1.00;;;;;;5052058;28;20040;-70
2023/07/02 08:00:17;;;;;;;10.40;3.05;;;15.40;1.00;;;;;;5052356;28;20021;-70
2023/07/02 08:02:46;;;;;;;16.20;2.90;;;15.30;1.00;;;;;;5051463;28;20591;-70
2023/07/02 08:05:12;;;;;;;9.25;2.80;;;15.30;1.00;;;;;;5052066;28;20509;-71
2023/07/02 08:07:40;;;;;;;13.07;3.20;;;15.30;1.00;;;;;;5051587;28;20060;-72
2023/07/02 08:10:07;;;;;;;15.20;3.00;;;15.40;1.00;;;;;;5052042;28;20036;-71
2023/07/02 08:12:33;;;;;;;12.68;2.83;;;15.40;1.00;;;;;;5052013;28;20033;-70
2023/07/02 08:15:00;;;;;;;15.27;3.17;;;15.50;1.00;;;;;;5052150;28;20021;-70
2023/07/02 08:17:26;;;;;;;12.82;2.85;;;15.60;1.00;;;;;;5052442;28;20104;-71
2023/07/02 08:19:51;;;;;;;15.20;3.42;;;15.60;1.00;;;;;;5051832;28;20105;-71
2023/07/02 08:22:17;;;;;;;14.02;3.33;;;15.80;1.00;;;;;;5052268;28;20112;-70
2023/07/02 08:24:43;;;;;;;14.30;2.97;;;15.90;1.00;;;;;;5051508;28;20388;-71
2023/07/02 08:27:10;;;;;;;15.90;3.20;;;16.00;1.00;;;;;;5051969;28;20478;-71
2023/07/02 08:29:36;;;;;;;9.50;3.00;;;16.10;1.00;;;;;;5051803;28;20060;-72
2023/07/02 08:32:02;;;;;;;15.80;3.17;;;16.20;1.00;;;;;;5051840;28;20323;-71
2023/07/02 08:34:28;;;;;;;12.73;2.50;;;16.30;99.90;;;;;;5051922;28;20031;-71
2023/07/02 08:36:53;;;;;;;11.60;3.08;;;16.30;99.90;;;;;;5051597;28;20020;-71
2023/07/02 08:39:19;;;;;;;10.32;2.70;;;16.50;99.90;;;;;;5051996;28;20107;-71
2023/07/02 08:41:47;;;;;;;11.23;2.42;;;16.50;4.50;;;;;;5051183;28;20457;-71
2023/07/02 08:44:13;;;;;;;11.15;2.63;;;16.70;1.00;;;;;;5051859;28;20102;-71
2023/07/02 08:46:43;;;;;;;12.15;2.50;;;16.70;1.00;;;;;;5050987;28;20029;-72
2023/07/02 08:49:09;;;;;;;10.35;2.60;;;16.80;1.00;;;;;;5051817;28;20090;-71
2023/07/02 08:51:35;;;;;;;11.25;2.78;;;16.80;1.00;;;;;;5051516;28;20025;-70
2023/07/02 08:54:04;;;;;;;9.93;2.58;;;16.80;1.00;;;;;;5050810;28;20123;-71
2023/07/02 08:56:30;;;;;;;10.45;3.08;;;16.90;75.40;;;;;;5051429;28;20112;-71
2023/07/02 08:58:56;;;;;;;13.55;2.67;;;16.90;99.90;;;;;;5048627;28;20017;-71
2023/07/02 09:01:22;;;;;;;11.90;2.85;;;16.90;38.00;;;;;;5050822;28;20025;-71
2023/07/02 09:03:49;;;;;;;11.30;2.55;;;16.90;1.00;;;;;;5050408;28;20029;-71
2023/07/02 09:06:18;;;;;;;10.50;2.60;;;16.90;1.00;;;;;;5048595;28;20045;-70
2023/07/02 09:08:44;;;;;;;6.65;2.05;;;17.00;1.00;;;;;;5050321;28;20033;-71
2023/07/02 09:11:11;;;;;;;10.15;2.13;;;17.20;1.00;;;;;;5050907;28;20035;-71
2023/07/02 09:13:44;;;;;;;12.65;3.20;;;17.20;99.90;;;;;;5050849;28;20482;-70
2023/07/02 09:16:26;;;;;;;12.52;2.92;;;17.30;28.60;;;;;;5050862;28;20024;-71
2023/07/02 09:19:09;;;;;;;9.52;2.70;;;17.30;99.90;;;;;;5049958;28;20040;-71
2023/07/02 09:21:41;;;;;;;8.30;2.35;;;17.30;99.90;;;;;;5051750;28;20025;-71
2023/07/02 09:24:32;;;;;;;14.10;2.70;;;17.30;1.00;;;;;;5050412;28;20029;-71
2023/07/02 09:27:00;;;;;;;8.95;2.70;;;17.30;65.00;;;;;;5048881;28;20798;-71
2023/07/02 09:29:33;;;;;;;6.97;2.25;;;17.30;1.00;;;;;;5050657;28;20045;-71
2023/07/02 09:32:07;;;;;;;8.52;2.25;;;17.30;1.00;;;;;;5049846;28;20029;-71
2023/07/02 09:34:34;;;;;;;9.77;2.10;;;17.30;1.00;;;;;;5050753;28;20032;-71
2023/07/02 09:37:01;;;;;;;9.07;2.65;;;17.30;82.80;;;;;;5050747;28;20020;-71
2023/07/02 09:39:27;;;;;;;9.02;2.13;;;17.30;1.00;;;;;;5051921;28;20113;-72
2023/07/02 09:41:55;;;;;;;10.68;2.05;;;17.00;16.30;;;;;;5050867;28;20390;-71
2023/07/02 09:44:22;;;;;;;8.65;2.38;;;17.10;35.90;;;;;;5051312;28;20039;-71
2023/07/02 09:46:58;;;;;;;7.63;2.05;;;17.10;99.90;;;;;;5050173;28;20041;-71
2023/07/02 09:49:25;;;;;;;10.27;2.35;;;17.10;1.00;;;;;;5051167;28;20385;-71
2023/07/02 09:51:52;;;;;;;11.18;2.42;;;17.10;1.00;;;;;;5051426;28;20074;-71
2023/07/02 09:54:20;;;;;;;7.95;1.85;;;17.10;1.00;;;;;;5050734;28;20470;-71
2023/07/02 09:56:46;;;;;;;10.93;2.30;;;17.20;1.00;;;;;;5050428;28;20035;-72
2023/07/02 09:59:12;;;;;;;10.50;2.65;;;17.30;1.00;;;;;;5051513;28;20155;-71
2023/07/02 10:01:38;;;;;;;10.68;2.30;;;17.50;1.00;;;;;;5051052;28;20451;-71
2023/07/02 10:04:14;;;;;;;15.43;2.63;;;17.40;99.90;;;;;;5049566;28;20483;-71
2023/07/02 10:06:54;;;;;;;7.35;1.80;;;17.50;1.00;;;;;;5050043;28;20032;-73
2023/07/02 10:09:21;;;;;;;12.60;2.15;;;17.50;99.90;;;;;;5050201;28;20021;-71
2023/07/02 10:11:47;;;;;;;8.63;1.80;;;17.60;1.00;;;;;;5049723;28;20025;-71
2023/07/02 10:14:13;;;;;;;12.32;2.53;;;17.60;1.00;;;;;;5049997;28;20032;-71
2023/07/02 10:16:53;;;;;;;9.95;2.50;;;17.70;1.00;;;;;;5049822;28;20097;-71
2023/07/02 10:19:19;;;;;;;7.60;2.20;;;17.80;99.90;;;;;;5050115;28;20112;-71
2023/07/02 10:21:46;;;;;;;8.10;2.28;;;17.80;99.90;;;;;;5049355;28;20036;-72
2023/07/02 10:24:15;;;;;;;8.82;2.05;;;17.80;1.00;;;;;;5049722;28;20064;-71
2023/07/02 10:27:02;;;;;;;10.10;2.20;;;18.00;6.40;;;;;;5049546;28;20098;-73
2023/07/02 10:29:29;;;;;;;11.82;2.33;;;18.10;99.90;;;;;;5049346;28;20152;-71
2023/07/02 10:31:56;;;;;;;7.57;2.10;;;18.20;1.00;;;;;;5049626;28;20025;-71
2023/07/02 10:34:32;;;;;;;5.78;1.58;;;18.20;99.90;;;;;;5049982;28;20056;-71
2023/07/02 10:37:04;;;;;;;8.10;2.30;;;18.20;99.90;;;;;;5049638;28;20120;-71
2023/07/02 10:39:30;;;;;;;8.85;2.03;;;18.10;99.90;;;;;;5050554;28;20443;-71
2023/07/02 10:42:06;;;;;;;9.63;2.33;;;18.10;1.00;;;;;;5049720;28;20470;-71
2023/07/02 10:44:32;;;;;;;8.70;2.22;;;18.30;1.00;;;;;;5050224;28;20021;-72
2023/07/02 10:46:58;;;;;;;6.65;1.80;;;18.40;99.90;;;;;;5049557;28;20112;-72
2023/07/02 10:49:31;;;;;;;9.88;3.03;;;18.50;99.90;;;;;;5050075;28;20431;-71
2023/07/02 10:52:00;;;;;;;6.18;1.90;;;18.60;99.90;;;;;;5049667;28;20053;-72
2023/07/02 10:54:38;;;;;;;7.65;1.60;;;18.60;1.00;;;;;;5050004;28;20037;-72
2023/07/02 10:57:04;;;;;;;4.10;1.73;;;18.60;1.00;;;;;;5049222;28;20252;-71
2023/07/02 10:59:30;;;;;;;6.80;1.92;;;18.40;99.90;;;;;;5049481;28;20025;-71
2023/07/02 11:02:01;;;;;;;8.13;1.98;;;18.30;99.90;;;;;;5048780;28;20052;-73
2023/07/02 11:04:27;;;;;;;5.07;1.45;;;18.20;1.00;;;;;;5048703;28;20369;-72
2023/07/02 11:06:53;;;;;;;6.57;1.83;;;18.00;99.90;;;;;;5049602;28;20108;-71
2023/07/02 11:09:20;;;;;;;8.80;1.95;;;17.80;99.90;;;;;;5050228;28;20039;-71
2023/07/02 11:12:00;;;;;;;9.70;1.60;;;17.80;1.00;;;;;;5049142;28;20025;-73
2023/07/02 11:14:36;;;;;;;7.65;1.70;;;17.90;1.00;;;;;;5048954;28;20025;-71
2023/07/02 11:17:06;;;;;;;7.00;1.92;;;18.20;1.00;;;;;;5048900;28;20048;-71
2023/07/02 11:19:33;;;;;;;7.20;1.88;;;18.40;1.00;;;;;;5049390;28;20025;-71
2023/07/02 11:22:00;;;;;;;6.03;1.65;;;18.60;1.00;;;;;;5049094;28;20435;-71
2023/07/02 11:24:34;;;;;;;8.77;1.80;;;18.60;99.90;;;;;;5049111;28;20021;-71
2023/07/02 11:27:01;;;;;;;11.70;2.35;;;18.40;99.90;;;;;;5048989;28;20103;-71
2023/07/02 11:29:29;;;;;;;5.32;1.98;;;18.40;1.00;;;;;;5051547;28;20387;-72
2023/07/02 11:32:04;;;;;;;6.05;1.95;;;18.40;1.00;;;;;;5053011;28;20025;-71
2023/07/02 11:34:29;;;;;;;6.50;1.67;;;18.50;1.00;;;;;;5052962;28;20029;-72
2023/07/02 11:36:55;;;;;;;7.72;2.00;;;18.40;1.00;;;;;;5052971;28;20070;-71
2023/07/02 11:39:21;;;;;;;7.57;1.80;;;18.20;1.00;;;;;;5053406;28;20415;-71
2023/07/02 11:41:48;;;;;;;8.23;1.40;;;18.20;1.00;;;;;;5053099;28;20040;-73
2023/07/02 11:44:15;;;;;;;7.07;1.85;;;18.00;1.00;;;;;;5052865;28;20029;-71
2023/07/02 11:46:41;;;;;;;5.90;1.65;;;18.00;99.90;;;;;;5053134;28;20037;-72
2023/07/02 11:49:09;;;;;;;8.55;2.00;;;18.00;1.00;;;;;;5052442;28;20435;-71
2023/07/02 11:51:39;;;;;;;8.70;1.88;;;18.00;1.00;;;;;;5053123;28;20025;-72
2023/07/02 11:54:05;;;;;;;6.60;1.73;;;17.90;1.00;;;;;;5052275;28;20588;-71
2023/07/02 11:56:31;;;;;;;7.80;1.83;;;17.90;1.00;;;;;;5052807;28;20647;-72
2023/07/02 11:58:57;;;;;;;6.38;1.73;;;17.80;1.00;;;;;;5051904;28;20175;-71
2023/07/02 12:01:23;;;;;;;5.88;1.63;;;17.80;97.30;;;;;;5053020;28;20100;-71
2023/07/02 12:03:48;;;;;;;8.73;1.90;;;17.90;1.00;;;;;;5051958;28;20115;-72
2023/07/02 12:06:14;;;;;;;8.32;1.75;;;18.10;99.90;;;;;;5050641;28;20036;-71
2023/07/02 12:08:40;;;;;;;5.93;1.30;;;18.30;99.90;;;;;;5051755;28;20093;-71
2023/07/02 12:11:06;;;;;;;7.65;1.40;;;18.40;1.00;;;;;;5051116;28;20081;-71
2023/07/02 12:13:32;;;;;;;3.42;1.13;;;18.40;1.00;;;;;;5050184;28;20040;-72
2023/07/02 12:15:57;;;;;;;7.80;1.98;;;18.70;1.00;;;;;;5051167;28;20029;-71
2023/07/02 12:18:23;;;;;;;6.65;1.60;;;18.90;1.00;;;;;;5051936;28;20021;-71
2023/07/02 12:20:49;;;;;;;4.78;1.50;;;19.00;1.00;;;;;;5050913;28;20025;-72
2023/07/02 12:23:14;;;;;;;5.35;1.83;;;19.20;1.00;;;;;;5051463;28;20075;-72
2023/07/02 12:25:40;;;;;;;4.00;1.48;;;19.30;1.00;;;;;;5051113;28;20120;-72
2023/07/02 12:28:06;;;;;;;5.22;1.50;;;19.30;99.90;;;;;;5050355;28;20053;-73
2023/07/02 12:30:32;;;;;;;4.80;1.60;;;19.30;72.30;;;;;;5050977;28;20017;-71
2023/07/02 12:32:58;;;;;;;4.63;1.42;;;19.30;1.00;;;;;;5050721;28;20040;-71
2023/07/02 12:35:24;;;;;;;4.35;1.70;;;19.20;1.00;;;;;;5051557;28;20033;-71
2023/07/02 12:37:53;;;;;;;3.10;1.27;;;19.20;59.30;;;;;;5050697;28;20111;-72
2023/07/02 12:40:19;;;;;;;8.55;1.83;;;19.10;99.90;;;;;;5050850;28;20029;-71
2023/07/02 12:42:46;;;;;;;7.78;1.83;;;19.10;99.90;;;;;;5051313;28;20124;-71